Time;durP1;ratioP1;P1;durP2;ratioP2;P2;SDS_P1;SDS_P2;PMS_P1;PMS_P2;Temp;Humidity;BMP_temperature;BMP_pressure;BME280_temperature;BME280_humidity;BME280_pressure;Samples;Min_cycle;Max_cycle;Signal;HPM_P1;HPM_P2
2023/01/21 00:01:34;;;;;;;23.47;19.77;;;;;;;3.98;56.75;98337.50;8550906;27;20449;-73
2023/01/21 00:05:36;;;;;;;21.70;17.20;;;;;;;4.10;55.86;98333.09;8550758;27;20225;-73
2023/01/21 00:09:40;;;;;;;20.27;16.57;;;;;;;4.15;55.57;98339.88;8550291;27;20232;-73
2023/01/21 00:13:44;;;;;;;18.63;15.27;;;;;;;3.96;55.77;98321.31;8549953;27;20221;-73
2023/01/21 00:17:47;;;;;;;20.47;15.77;;;;;;;4.09;55.28;98326.28;8550143;27;20236;-73
2023/01/21 00:21:49;;;;;;;21.43;17.57;;;;;;;4.02;55.33;98334.91;8550115;27;20254;-73
2023/01/21 00:25:58;;;;;;;21.10;17.20;;;;;;;3.98;55.75;98348.63;8550003;27;20225;-73
2023/01/21 00:30:01;;;;;;;19.80;17.43;;;;;;;3.87;56.26;98346.19;8550182;27;20234;-73
2023/01/21 00:34:04;;;;;;;20.03;16.83;;;;;;;3.99;55.92;98349.47;8549435;27;20236;-73
2023/01/21 00:38:07;;;;;;;18.83;15.27;;;;;;;3.66;56.11;98347.25;8549694;27;20225;-73
2023/01/21 00:42:11;;;;;;;20.50;15.73;;;;;;;3.92;55.61;98341.88;8549303;27;20225;-73
2023/01/21 00:46:13;;;;;;;19.17;16.23;;;;;;;3.95;55.57;98351.22;8549618;27;20221;-73
2023/01/21 00:50:16;;;;;;;18.30;15.87;;;;;;;3.62;56.23;98349.88;8549463;27;20222;-73
2023/01/21 00:54:20;;;;;;;19.13;15.20;;;;;;;3.58;56.06;98354.19;8548967;27;20233;-73
2023/01/21 00:58:24;;;;;;;18.80;16.00;;;;;;;3.58;56.20;98364.44;8549054;27;20228;-73
2023/01/21 01:02:27;;;;;;;17.60;14.80;;;;;;;3.89;55.79;98367.50;8549148;27;20334;-73
2023/01/21 01:06:30;;;;;;;19.00;16.57;;;;;;;3.86;55.75;98377.78;8548969;27;20225;-74
2023/01/21 01:10:32;;;;;;;18.67;15.50;;;;;;;3.79;56.20;98372.75;8548263;27;20232;-73
2023/01/21 01:14:36;;;;;;;17.63;15.30;;;;;;;3.84;55.55;98371.81;8548624;27;20262;-73
2023/01/21 01:18:39;;;;;;;18.07;14.30;;;;;;;3.81;55.64;98388.94;8548759;27;20222;-73
2023/01/21 01:22:42;;;;;;;18.30;14.17;;;;;;;3.69;56.15;98388.22;8547955;27;20225;-73
2023/01/21 01:26:45;;;;;;;18.03;14.20;;;;;;;3.77;55.49;98389.84;8548449;27;20260;-73
2023/01/21 01:30:49;;;;;;;19.30;14.83;;;;;;;3.49;56.45;98397.81;8548417;27;20410;-73
2023/01/21 01:34:52;;;;;;;17.70;13.73;;;;;;;3.75;55.68;98401.81;8548288;27;20229;-73
2023/01/21 01:38:55;;;;;;;15.53;13.87;;;;;;;3.64;56.01;98400.22;8548208;27;20221;-73
2023/01/21 01:42:58;;;;;;;19.07;14.37;;;;;;;3.70;55.12;98396.75;8548246;27;20236;-73
2023/01/21 01:47:03;;;;;;;15.87;13.80;;;;;;;3.63;55.81;98411.31;8548079;27;20225;-74
2023/01/21 01:51:06;;;;;;;19.90;13.90;;;;;;;3.70;55.35;98402.72;8548197;27;20214;-73
2023/01/21 01:55:10;;;;;;;17.57;13.43;;;;;;;3.85;54.68;98403.44;8547753;27;20296;-73
2023/01/21 01:59:13;;;;;;;15.43;13.73;;;;;;;3.76;54.51;98404.38;8548155;27;20221;-73
2023/01/21 02:07:49;;;;;;;15.73;13.30;;;;;;;3.74;54.07;98395.84;8467715;27;20268;-73
2023/01/21 02:11:52;;;;;;;14.67;12.40;;;;;;;3.61;53.95;98402.81;8547720;27;20236;-73
2023/01/21 02:16:06;;;;;;;15.87;12.17;;;;;;;3.85;53.37;98399.16;8547530;27;20241;-73
2023/01/21 02:20:29;;;;;;;14.13;12.30;;;;;;;3.55;53.65;98378.97;8547908;27;20233;-73
2023/01/21 02:25:11;;;;;;;15.57;12.70;;;;;;;3.77;53.40;98405.22;8554043;27;20229;-73
2023/01/21 02:29:45;;;;;;;16.33;12.33;;;;;;;3.81;53.00;98402.63;8553783;27;20218;-73
2023/01/21 02:33:55;;;;;;;18.10;13.30;;;;;;;3.66;53.42;98397.66;8498619;27;20221;-73
2023/01/21 02:38:05;;;;;;;18.67;13.80;;;;;;;3.72;53.33;98395.88;8553651;27;20225;-74
2023/01/21 02:42:13;;;;;;;16.57;13.50;;;;;;;3.55;53.55;98394.34;8553426;27;20232;-73
2023/01/21 02:46:18;;;;;;;17.20;14.10;;;;;;;3.68;53.70;98395.94;8553595;27;20236;-73
2023/01/21 02:50:25;;;;;;;17.13;14.60;;;;;;;3.53;53.29;98392.63;8553630;27;20259;-73
2023/01/21 02:54:52;;;;;;;17.07;14.07;;;;;;;3.68;53.32;98389.09;8553032;27;20232;-73
2023/01/21 02:58:59;;;;;;;18.63;14.70;;;;;;;3.68;53.21;98389.09;8552678;27;20221;-73
2023/01/21 03:03:34;;;;;;;17.10;14.43;;;;;;;3.62;53.33;98386.59;8552897;27;20237;-73
2023/01/21 03:07:42;;;;;;;19.97;15.47;;;;;;;3.51;53.66;98390.97;8552735;27;20232;-72
2023/01/21 03:11:51;;;;;;;16.87;14.20;;;;;;;3.55;53.82;98395.19;8552001;27;20567;-73
2023/01/21 03:20:23;;;;;;;18.57;15.10;;;;;;;3.58;53.56;98384.06;8494114;27;20217;-73
2023/01/21 03:24:27;;;;;;;20.13;15.30;;;;;;;3.49;53.77;98390.97;8552180;27;20236;-73
2023/01/21 03:28:33;;;;;;;18.53;14.77;;;;;;;3.52;53.96;98393.50;8552129;27;20392;-73
2023/01/21 03:32:36;;;;;;;19.00;15.10;;;;;;;3.50;53.74;98404.59;8551640;27;20237;-73
2023/01/21 03:36:43;;;;;;;18.70;14.97;;;;;;;3.35;54.00;98395.38;8551471;27;20233;-73
2023/01/21 03:40:52;;;;;;;19.97;15.00;;;;;;;3.45;53.52;98398.69;8551224;27;20233;-73
2023/01/21 03:44:54;;;;;;;20.07;15.60;;;;;;;3.36;53.75;98402.19;8551441;27;20233;-73
2023/01/21 03:48:59;;;;;;;18.63;15.10;;;;;;;3.46;53.49;98398.66;8551286;27;20229;-73
2023/01/21 03:53:02;;;;;;;19.57;15.07;;;;;;;3.50;53.69;98397.81;8551209;27;20404;-73
2023/01/21 03:57:06;;;;;;;19.63;15.57;;;;;;;3.42;53.70;98391.03;8550965;27;20417;-73
2023/01/21 04:01:09;;;;;;;20.53;15.43;;;;;;;3.32;53.74;98393.66;8551007;27;20218;-73
2023/01/21 04:05:13;;;;;;;19.40;15.83;;;;;;;3.35;54.22;98400.50;8550968;27;20463;-73
2023/01/21 04:09:15;;;;;;;21.83;15.93;;;;;;;3.42;53.69;98402.13;8550571;27;20289;-73
2023/01/21 04:13:19;;;;;;;20.70;16.30;;;;;;;3.47;53.62;98402.94;8550609;27;20230;-73
2023/01/21 04:17:22;;;;;;;23.87;16.70;;;;;;;3.40;53.93;98395.31;8550323;27;20228;-73
2023/01/21 04:21:25;;;;;;;21.43;15.90;;;;;;;3.39;54.07;98396.16;8550264;27;20263;-73
2023/01/21 04:25:28;;;;;;;23.43;17.17;;;;;;;3.43;54.03;98400.44;8550250;27;20222;-73
2023/01/21 04:29:32;;;;;;;21.93;16.63;;;;;;;3.51;54.03;98408.88;8550010;27;20214;-73
2023/01/21 04:33:35;;;;;;;21.70;16.47;;;;;;;3.54;54.12;98398.59;8550221;27;20224;-73
2023/01/21 04:37:38;;;;;;;19.97;15.77;;;;;;;3.64;54.11;98401.94;8549957;27;20244;-73
2023/01/21 04:41:40;;;;;;;24.20;17.23;;;;;;;3.58;54.20;98413.09;8549867;27;20229;-73
2023/01/21 04:45:44;;;;;;;21.70;16.60;;;;;;;3.49;54.58;98411.44;8548379;27;20230;-73
2023/01/21 04:49:48;;;;;;;22.30;16.80;;;;;;;3.67;54.08;98412.13;8549265;27;20228;-73
2023/01/21 04:53:51;;;;;;;22.60;16.63;;;;;;;3.40;54.69;98406.41;8549448;27;20232;-73
2023/01/21 04:57:53;;;;;;;23.50;17.10;;;;;;;3.66;54.44;98413.88;8548944;27;20232;-73
2023/01/21 05:01:58;;;;;;;21.93;17.00;;;;;;;3.51;54.41;98409.72;8549058;27;20270;-73
2023/01/21 05:06:00;;;;;;;22.60;16.43;;;;;;;3.16;55.01;98406.59;8548895;27;20235;-73
2023/01/21 05:10:03;;;;;;;22.33;16.80;;;;;;;3.43;55.25;98408.94;8548869;27;20225;-73
2023/01/21 05:14:06;;;;;;;24.70;17.00;;;;;;;3.50;54.74;98409.72;8548787;27;20508;-73
2023/01/21 05:18:10;;;;;;;20.73;15.53;;;;;;;3.49;54.75;98413.19;8548774;27;20229;-73
2023/01/21 05:22:13;;;;;;;21.47;15.43;;;;;;;3.35;55.22;98417.53;8548998;27;20233;-73
2023/01/21 05:26:15;;;;;;;23.50;17.13;;;;;;;3.45;54.16;98419.19;8398278;22;20224;-66
2023/01/21 05:30:18;;;;;;;20.87;15.10;;;;;;;3.62;54.38;98425.00;8380383;28;20224;-67
2023/01/21 05:34:23;;;;;;;17.73;14.40;;;;;;;3.48;54.55;98429.38;8380079;28;20224;-67
2023/01/21 05:38:26;;;;;;;20.93;14.93;;;;;;;3.31;55.07;98425.28;8380097;28;20228;-67
2023/01/21 05:42:29;;;;;;;18.70;15.23;;;;;;;3.51;54.28;98421.69;8379953;28;20232;-68
2023/01/21 05:46:32;;;;;;;18.53;13.83;;;;;;;3.72;53.79;98424.03;8380011;28;20229;-68
2023/01/21 05:50:38;;;;;;;17.73;13.80;;;;;;;3.57;54.34;98431.88;8379921;28;20229;-68
2023/01/21 05:54:40;;;;;;;19.40;14.20;;;;;;;3.33;54.38;98433.78;8380351;28;20286;-68
2023/01/21 05:59:02;;;;;;;17.50;14.03;;;;;;;3.44;54.49;98432.84;8386413;28;20228;-68
2023/01/21 06:03:04;;;;;;;18.00;13.17;;;;;;;3.50;54.24;98432.78;8386576;28;20235;-68
2023/01/21 06:07:08;;;;;;;22.00;14.67;;;;;;;3.71;54.05;98441.97;8386452;28;20229;-68
2023/01/21 06:11:11;;;;;;;20.67;14.50;;;;;;;3.72;54.19;98436.84;8386198;28;20322;-68
2023/01/21 06:15:14;;;;;;;20.53;14.83;;;;;;;3.72;54.27;98438.56;8386095;28;20239;-67
2023/01/21 06:19:17;;;;;;;18.27;14.37;;;;;;;3.77;54.01;98451.31;8386014;28;20237;-68
2023/01/21 06:23:21;;;;;;;18.77;14.53;;;;;;;3.57;54.65;98443.84;8385939;28;20239;-68
2023/01/21 06:27:24;;;;;;;20.03;14.47;;;;;;;3.65;54.35;98431.81;8385922;28;20252;-68
2023/01/21 06:31:27;;;;;;;18.80;14.77;;;;;;;3.55;53.83;98408.00;8385811;28;20228;-68
2023/01/21 06:35:31;;;;;;;18.40;14.47;;;;;;;3.77;53.77;98452.19;8385423;28;20292;-68
2023/01/21 06:39:35;;;;;;;17.97;14.00;;;;;;;3.75;53.92;98445.38;8385388;28;20527;-68
2023/01/21 06:43:38;;;;;;;17.00;13.57;;;;;;;3.67;53.82;98455.69;8385290;28;20220;-68
2023/01/21 06:47:41;;;;;;;19.30;14.13;;;;;;;3.78;53.83;98460.72;8385230;28;20229;-68
2023/01/21 06:51:44;;;;;;;17.50;13.43;;;;;;;3.90;53.94;98461.47;8384711;28;20260;-68
2023/01/21 06:55:48;;;;;;;18.47;13.63;;;;;;;3.77;53.89;98464.13;8384615;28;20244;-68
2023/01/21 06:59:51;;;;;;;17.80;13.10;;;;;;;3.80;53.78;98466.69;8384589;28;20225;-68
2023/01/21 07:03:54;;;;;;;15.80;12.63;;;;;;;3.77;53.69;98459.00;8384552;28;20232;-68
2023/01/21 07:07:57;;;;;;;16.83;12.93;;;;;;;3.89;53.32;98466.59;8383444;28;20303;-68
2023/01/21 07:12:01;;;;;;;16.47;12.27;;;;;;;3.91;53.40;98475.13;8383876;28;20232;-68
2023/01/21 07:16:05;;;;;;;16.20;13.47;;;;;;;3.70;53.94;98477.00;8383917;28;20229;-68
2023/01/21 07:20:11;;;;;;;17.33;13.33;;;;;;;3.36;53.96;98447.41;8383987;28;20221;-69
2023/01/21 07:24:14;;;;;;;16.07;12.87;;;;;;;3.79;53.81;98490.59;8383877;28;20236;-68
2023/01/21 07:28:18;;;;;;;15.87;12.73;;;;;;;3.70;54.14;98488.97;8383777;28;20483;-68
2023/01/21 07:32:21;;;;;;;17.27;12.77;;;;;;;3.80;53.95;98489.75;8383829;28;20224;-68
2023/01/21 07:36:25;;;;;;;16.70;12.70;;;;;;;3.67;53.84;98487.25;8383330;28;20225;-68
2023/01/21 07:40:28;;;;;;;14.57;12.00;;;;;;;3.71;54.02;98480.41;8383496;28;20540;-68
2023/01/21 07:44:32;;;;;;;14.63;12.03;;;;;;;3.46;53.82;98493.41;8383410;28;20229;-68
2023/01/21 07:48:35;;;;;;;17.33;12.70;;;;;;;3.50;54.50;98484.00;8383210;28;20229;-68
2023/01/21 07:52:38;;;;;;;14.10;11.17;;;;;;;3.87;53.12;98488.84;8382996;28;20236;-68
2023/01/21 07:56:42;;;;;;;15.63;12.87;;;;;;;3.61;53.57;98484.75;8382343;28;20258;-68
2023/01/21 08:00:46;;;;;;;16.23;12.67;;;;;;;3.80;53.81;98484.63;8382610;28;20233;-68
2023/01/21 08:04:49;;;;;;;15.57;11.90;;;;;;;3.78;53.80;98494.03;8382271;28;20286;-68
2023/01/21 08:08:52;;;;;;;14.33;11.00;;;;;;;3.96;53.52;98490.44;8382691;28;20237;-68
2023/01/21 08:12:54;;;;;;;15.50;12.03;;;;;;;3.80;53.94;98475.22;8382282;28;20240;-68
2023/01/21 08:16:58;;;;;;;17.07;11.67;;;;;;;3.98;53.47;98484.47;8382138;28;20540;-69
2023/01/21 08:21:01;;;;;;;17.20;12.57;;;;;;;3.76;53.54;98488.06;8382242;28;20249;-68
2023/01/21 08:25:05;;;;;;;14.70;11.60;;;;;;;3.70;53.85;98494.09;8382009;28;20232;-68
2023/01/21 08:29:08;;;;;;;14.97;11.27;;;;;;;3.98;54.06;98501.53;8382046;28;20527;-68
2023/01/21 08:33:12;;;;;;;15.87;11.90;;;;;;;3.96;53.29;98501.56;8382082;28;20396;-68
2023/01/21 08:37:15;;;;;;;16.03;11.57;;;;;;;3.94;53.73;98499.84;8381526;28;20220;-69
2023/01/21 08:41:18;;;;;;;17.30;11.70;;;;;;;3.96;53.66;98505.81;8381520;28;20255;-68
2023/01/21 08:45:21;;;;;;;15.57;11.50;;;;;;;3.92;53.76;98505.00;8381468;28;20228;-68
2023/01/21 08:49:25;;;;;;;17.37;12.00;;;;;;;4.20;52.88;98504.75;8381435;28;20229;-68
2023/01/21 08:53:28;;;;;;;17.13;11.70;;;;;;;4.18;52.85;98503.91;8380974;28;20241;-68
2023/01/21 08:57:31;;;;;;;16.50;11.87;;;;;;;4.16;53.15;98505.66;8380919;28;20251;-68
2023/01/21 09:01:35;;;;;;;17.07;12.77;;;;;;;3.95;53.61;98514.38;8380963;28;20225;-68
2023/01/21 09:05:39;;;;;;;19.63;13.23;;;;;;;3.44;53.91;98509.66;8381062;28;20416;-68
2023/01/21 09:09:42;;;;;;;15.37;11.57;;;;;;;4.35;53.18;98519.97;8380394;28;20224;-68
2023/01/21 09:13:45;;;;;;;17.63;12.47;;;;;;;4.31;52.75;98521.72;8380498;28;20221;-68
2023/01/21 09:17:47;;;;;;;15.17;12.10;;;;;;;3.86;53.55;98536.63;8380674;28;20492;-68
2023/01/21 09:21:54;;;;;;;18.03;13.73;;;;;;;3.79;53.98;98539.25;8380452;28;20240;-68
2023/01/21 09:26:01;;;;;;;17.37;11.80;;;;;;;4.10;53.38;98548.41;8380254;28;20231;-69
2023/01/21 09:30:05;;;;;;;18.77;12.83;;;;;;;4.09;52.39;98533.03;8379906;28;20339;-68
2023/01/21 09:34:09;;;;;;;17.50;12.77;;;;;;;4.38;53.09;98560.09;8380344;28;20495;-68
2023/01/21 09:38:13;;;;;;;17.77;13.27;;;;;;;4.42;53.00;98557.50;8380065;28;20236;-69
2023/01/21 09:42:18;;;;;;;19.20;14.23;;;;;;;4.21;53.34;98568.00;8380305;28;20229;-68
2023/01/21 09:46:28;;;;;;;18.70;14.10;;;;;;;4.40;53.34;98566.94;8380051;28;20225;-68
2023/01/21 09:50:32;;;;;;;18.03;12.73;;;;;;;4.58;53.10;98565.88;8380523;28;20498;-68
2023/01/21 09:54:37;;;;;;;17.70;13.27;;;;;;;4.52;52.85;98570.25;8380026;28;20417;-68
2023/01/21 09:58:42;;;;;;;17.17;12.73;;;;;;;4.29;53.15;98543.13;8380271;28;20229;-68
2023/01/21 10:02:50;;;;;;;17.13;12.33;;;;;;;4.62;52.93;98571.84;8379457;28;20225;-68
2023/01/21 10:06:56;;;;;;;16.57;12.93;;;;;;;4.27;52.79;98548.25;8379738;28;20228;-68
2023/01/21 10:11:12;;;;;;;15.60;11.27;;;;;;;4.09;53.46;98595.44;8379584;28;20228;-68
2023/01/21 10:15:38;;;;;;;15.13;9.87;;;;;;;3.97;52.60;98589.53;8379539;28;20225;-68
2023/01/21 10:19:45;;;;;;;13.33;9.50;;;;;;;3.63;52.94;98580.38;8379724;28;20227;-68
2023/01/21 10:23:50;;;;;;;8.57;6.60;;;;;;;3.70;50.94;98597.41;8371671;28;20535;-68
2023/01/21 10:27:56;;;;;;;9.37;7.33;;;;;;;3.53;51.45;98574.47;8379599;28;20551;-68
2023/01/21 10:32:01;;;;;;;10.63;8.13;;;;;;;3.95;51.17;98594.66;8379165;28;20229;-68
2023/01/21 10:36:25;;;;;;;11.90;7.87;;;;;;;3.83;51.22;98598.19;8379068;28;20235;-69
2023/01/21 10:40:42;;;;;;;10.03;7.70;;;;;;;3.53;52.29;98581.31;8379085;28;20240;-68
2023/01/21 10:44:52;;;;;;;12.27;8.30;;;;;;;3.34;52.53;98590.78;8375985;28;20235;-68
2023/01/21 10:48:57;;;;;;;11.47;9.03;;;;;;;3.81;52.40;98591.34;8384612;28;20354;-67
2023/01/21 10:53:05;;;;;;;12.27;8.73;;;;;;;3.43;52.68;98564.31;8384916;28;20236;-68
2023/01/21 10:57:14;;;;;;;10.60;7.90;;;;;;;3.84;51.95;98583.66;8384426;28;20405;-68
2023/01/21 11:01:22;;;;;;;9.40;7.23;;;;;;;3.21;52.26;98591.72;8384944;28;20224;-68
2023/01/21 11:05:25;;;;;;;9.97;7.90;;;;;;;3.86;51.60;98587.88;8384680;28;20220;-68
2023/01/21 11:09:32;;;;;;;12.27;7.77;;;;;;;3.90;51.37;98586.16;8384430;28;20239;-68
2023/01/21 11:13:35;;;;;;;9.97;7.63;;;;;;;3.57;50.90;98590.66;8384574;28;20390;-68
2023/01/21 11:17:40;;;;;;;10.23;8.07;;;;;;;3.67;50.63;98547.91;8384108;28;20229;-68
2023/01/21 11:21:58;;;;;;;12.10;8.50;;;;;;;3.59;50.91;98588.09;8383765;28;20239;-68
2023/01/21 11:26:03;;;;;;;9.90;7.70;;;;;;;3.84;50.74;98579.38;8383578;28;20563;-67
2023/01/21 11:30:16;;;;;;;9.90;7.23;;;;;;;3.92;50.59;98584.44;8383917;28;20225;-67
2023/01/21 11:34:44;;;;;;;11.27;8.50;;;;;;;3.99;50.41;98577.56;8383032;28;20291;-67
2023/01/21 11:38:49;;;;;;;7.87;6.60;;;;;;;3.87;50.89;98571.66;8382690;28;20229;-67
2023/01/21 11:42:54;;;;;;;8.73;7.17;;;;;;;3.91;50.11;98557.13;8383278;28;20236;-67
2023/01/21 11:46:56;;;;;;;6.90;6.20;;;;;;;3.52;50.70;98562.53;8382782;28;20228;-67
2023/01/21 11:51:16;;;;;;;8.37;7.00;;;;;;;3.92;50.37;98559.69;8383014;28;20221;-67
2023/01/21 11:55:22;;;;;;;9.30;7.53;;;;;;;4.01;50.61;98560.47;8381236;28;20400;-67
2023/01/21 11:59:27;;;;;;;7.83;6.40;;;;;;;4.20;49.82;98554.28;8382638;28;20234;-68
2023/01/21 12:03:33;;;;;;;6.80;6.00;;;;;;;3.99;49.68;98552.78;8382236;28;20535;-68
2023/01/21 12:07:39;;;;;;;7.57;6.23;;;;;;;4.04;50.14;98555.31;8382521;28;20478;-68
2023/01/21 12:11:43;;;;;;;6.40;5.80;;;;;;;3.84;50.01;98552.91;8381860;28;20524;-69
2023/01/21 12:16:02;;;;;;;6.23;5.63;;;;;;;3.81;51.11;98551.22;8382221;28;20232;-68
2023/01/21 12:20:25;;;;;;;10.57;9.10;;;;;;;4.24;49.79;98547.44;8382156;28;20335;-68
2023/01/21 12:24:39;;;;;;;11.73;9.67;;;;;;;5.33;63.23;98545.28;8381687;28;20236;-68
2023/01/21 12:28:52;;;;;;;10.97;6.53;;;;;;;8.17;60.35;98544.09;8373260;28;20239;-68
2023/01/21 12:32:58;;;;;;;6.57;5.87;;;;;;;8.66;47.52;98488.56;8381441;28;20235;-67
2023/01/21 12:37:04;;;;;;;6.23;5.50;;;;;;;6.53;46.07;98509.91;8381287;28;20247;-67
2023/01/21 12:41:12;;;;;;;7.47;6.70;;;;;;;5.56;46.60;98527.84;8381076;28;20240;-67
2023/01/21 12:45:19;;;;;;;6.47;5.87;;;;;;;5.50;47.57;98525.34;8381459;28;20225;-67
2023/01/21 12:49:25;;;;;;;8.17;7.10;;;;;;;4.91;48.72;98520.16;8381180;28;20229;-68
2023/01/21 12:53:33;;;;;;;9.17;8.07;;;;;;;5.04;49.17;98521.69;8380851;28;20232;-67
2023/01/21 12:57:40;;;;;;;8.90;8.00;;;;;;;4.14;50.50;98472.31;8380683;28;20232;-67
2023/01/21 13:01:49;;;;;;;11.43;8.57;;;;;;;4.72;50.08;98526.41;8380155;28;20229;-67
2023/01/21 13:05:55;;;;;;;9.67;8.07;;;;;;;4.63;49.95;98520.53;8380086;28;20244;-68
2023/01/21 13:10:03;;;;;;;9.13;7.73;;;;;;;4.40;50.56;98507.94;8380950;28;20436;-68
2023/01/21 13:14:23;;;;;;;11.53;8.73;;;;;;;4.24;51.59;98530.31;8380774;28;20546;-68
2023/01/21 13:18:31;;;;;;;8.27;6.97;;;;;;;3.76;52.30;98536.75;8380271;28;20224;-68
2023/01/21 13:22:36;;;;;;;8.37;7.57;;;;;;;4.14;52.33;98546.66;8380514;28;20225;-68
2023/01/21 13:26:44;;;;;;;7.83;7.03;;;;;;;3.79;53.44;98552.06;8379921;28;20519;-68
2023/01/21 13:30:53;;;;;;;9.07;7.40;;;;;;;4.11;51.91;98546.69;8379643;28;20270;-68
2023/01/21 13:35:05;;;;;;;10.67;7.63;;;;;;;3.91;52.65;98545.16;8379753;28;20270;-68
2023/01/21 13:39:17;;;;;;;8.20;6.80;;;;;;;4.00;52.27;98543.38;8379620;28;20232;-67
2023/01/21 13:43:34;;;;;;;8.33;6.90;;;;;;;4.12;52.17;98548.41;8379942;28;20243;-67
2023/01/21 13:47:47;;;;;;;8.63;7.20;;;;;;;4.22;52.46;98554.28;8379875;28;20555;-67
2023/01/21 13:51:58;;;;;;;8.67;7.50;;;;;;;3.54;53.65;98547.13;8379508;28;20233;-67
2023/01/21 13:56:10;;;;;;;7.93;6.53;;;;;;;3.47;54.26;98541.22;8379786;28;20272;-68
2023/01/21 14:00:16;;;;;;;7.33;6.40;;;;;;;4.02;53.54;98542.50;8379794;28;20225;-67
2023/01/21 14:04:26;;;;;;;7.73;6.93;;;;;;;4.18;52.65;98538.09;8379861;28;20225;-67
2023/01/21 14:08:33;;;;;;;7.00;6.30;;;;;;;3.91;53.77;98545.16;8379503;28;20225;-67
2023/01/21 14:12:51;;;;;;;9.33;6.93;;;;;;;3.66;54.39;98534.25;8379023;28;20225;-67
2023/01/21 14:17:07;;;;;;;7.00;6.30;;;;;;;4.01;53.86;98534.81;8381804;28;20240;-67
2023/01/21 14:21:21;;;;;;;8.43;7.53;;;;;;;3.61;55.50;98537.72;8385989;28;20225;-67
2023/01/21 14:25:33;;;;;;;10.20;8.47;;;;;;;3.86;54.26;98533.25;8385587;28;20409;-68
2023/01/21 14:29:39;;;;;;;10.30;8.37;;;;;;;4.20;53.55;98533.78;8385591;28;20417;-68
2023/01/21 14:33:46;;;;;;;8.13;7.33;;;;;;;4.33;52.89;98537.09;8385114;28;20332;-68
2023/01/21 14:37:55;;;;;;;10.57;9.00;;;;;;;4.28;53.49;98531.16;8385359;28;20240;-68
2023/01/21 14:42:08;;;;;;;9.17;8.03;;;;;;;4.06;53.81;98512.56;8379004;28;20251;-68
2023/01/21 14:46:30;;;;;;;7.83;7.00;;;;;;;4.01;53.11;98530.53;8382087;28;20248;-68
2023/01/21 14:50:45;;;;;;;8.97;7.63;;;;;;;3.48;54.83;98519.88;8384414;28;20224;-68
2023/01/21 14:54:51;;;;;;;8.73;7.80;;;;;;;3.76;54.98;98537.59;8377287;28;20344;-67
2023/01/21 14:58:56;;;;;;;9.50;7.27;;;;;;;3.92;56.82;98538.31;8384207;28;20241;-67
2023/01/21 15:03:13;;;;;;;9.10;7.50;;;;;;;4.20;54.16;98544.03;8384689;28;20233;-68
2023/01/21 15:07:19;;;;;;;8.37;7.30;;;;;;;4.08;54.53;98546.72;8384725;28;20221;-68
2023/01/21 15:11:29;;;;;;;9.33;8.33;;;;;;;3.92;54.48;98543.44;8384243;28;20236;-68
2023/01/21 15:15:35;;;;;;;7.60;6.80;;;;;;;4.14;53.52;98550.94;8384373;28;20232;-68
2023/01/21 15:19:38;;;;;;;8.23;7.07;;;;;;;3.66;55.10;98541.09;8384120;28;20225;-66
2023/01/21 15:23:40;;;;;;;7.30;6.60;;;;;;;3.57;53.59;98443.84;8383807;28;20225;-68
2023/01/21 15:28:24;;;;;;;8.30;7.20;;;;;;;4.11;53.75;98545.00;8382991;28;20224;-67
2023/01/21 15:32:29;;;;;;;9.40;7.40;;;;;;;4.03;53.61;98541.63;8383703;28;20236;-69
2023/01/21 15:36:33;;;;;;;9.93;8.13;;;;;;;3.80;54.44;98546.09;8383535;28;20247;-68
2023/01/21 15:40:39;;;;;;;14.90;10.93;;;;;;;3.71;54.71;98552.13;8383702;28;20265;-69
2023/01/21 15:44:51;;;;;;;13.07;10.50;;;;;;;3.82;54.58;98558.03;8383182;28;20228;-68
2023/01/21 15:49:02;;;;;;;12.57;10.83;;;;;;;3.91;54.47;98552.00;8383270;28;20233;-68
2023/01/21 15:53:24;;;;;;;10.77;9.47;;;;;;;4.23;54.02;98561.13;8383305;28;20232;-69
2023/01/21 15:57:37;;;;;;;9.40;7.27;;;;;;;3.78;55.39;98564.06;8382946;28;20235;-68
2023/01/21 16:01:41;;;;;;;8.93;7.60;;;;;;;3.67;56.33;98559.00;8382812;28;20234;-69
2023/01/21 16:05:52;;;;;;;10.50;7.73;;;;;;;3.81;56.21;98542.66;8373565;28;20229;-68
2023/01/21 16:10:02;;;;;;;8.57;7.70;;;;;;;4.29;54.93;98561.06;8382527;28;20339;-68
2023/01/21 16:14:15;;;;;;;9.53;7.60;;;;;;;4.16;55.27;98556.91;8381240;28;20225;-68
2023/01/21 16:18:27;;;;;;;10.83;9.23;;;;;;;4.11;55.28;98562.94;8382193;28;20260;-68
2023/01/21 16:22:32;;;;;;;9.07;7.57;;;;;;;3.77;55.78;98561.50;8382443;28;20412;-68
2023/01/21 16:26:35;;;;;;;9.17;7.43;;;;;;;3.90;55.68;98568.22;8381001;28;20228;-68
2023/01/21 16:30:38;;;;;;;11.20;8.00;;;;;;;4.00;55.12;98571.56;8382399;28;20413;-68
2023/01/21 16:34:43;;;;;;;9.97;8.40;;;;;;;3.47;56.25;98574.50;8382907;28;20248;-68
2023/01/21 16:38:47;;;;;;;8.03;7.23;;;;;;;4.05;55.17;98574.94;8381392;28;20228;-68
2023/01/21 16:43:04;;;;;;;8.67;7.67;;;;;;;4.14;54.27;98569.75;8381533;28;20232;-68
2023/01/21 16:47:18;;;;;;;8.70;7.80;;;;;;;3.57;54.50;98477.13;8381772;28;20225;-68
2023/01/21 16:51:24;;;;;;;11.40;9.07;;;;;;;4.17;54.53;98574.84;8381917;28;20237;-68
2023/01/21 16:55:29;;;;;;;11.47;9.03;;;;;;;4.29;54.73;98572.16;8381254;28;20267;-68
2023/01/21 16:59:38;;;;;;;11.00;8.87;;;;;;;3.88;55.31;98578.50;8380881;28;20237;-68
2023/01/21 17:03:42;;;;;;;11.77;10.47;;;;;;;4.12;54.56;98568.91;8380881;28;20220;-68
2023/01/21 17:07:48;;;;;;;22.80;18.03;;;;;;;4.28;54.54;98580.72;8381295;28;20530;-67
2023/01/21 17:11:50;;;;;;;14.97;12.17;;;;;;;4.12;54.50;98574.03;8380926;28;20228;-68
2023/01/21 17:15:56;;;;;;;19.17;16.77;;;;;;;4.39;54.04;98583.19;8380907;28;20231;-68
2023/01/21 17:20:01;;;;;;;22.43;17.27;;;;;;;4.49;53.53;98578.81;8380788;28;20232;-68
2023/01/21 17:24:07;;;;;;;28.57;23.57;;;;;;;4.57;53.33;98569.34;8380484;28;20243;-68
2023/01/21 17:28:17;;;;;;;13.30;11.20;;;;;;;4.22;53.92;98557.69;8380846;28;20504;-68
2023/01/21 17:32:26;;;;;;;10.53;8.93;;;;;;;4.58;53.16;98575.31;8380035;28;20459;-67
2023/01/21 17:36:33;;;;;;;9.20;8.17;;;;;;;4.65;53.26;98580.34;8380274;28;20252;-67
2023/01/21 17:40:40;;;;;;;9.57;8.30;;;;;;;4.52;53.33;98576.22;8379868;28;20587;-68
2023/01/21 17:44:45;;;;;;;8.93;7.90;;;;;;;4.67;53.05;98582.91;8379241;28;20532;-68
2023/01/21 17:48:49;;;;;;;9.77;8.00;;;;;;;4.22;53.55;98577.34;8379952;28;20397;-68
2023/01/21 17:52:54;;;;;;;8.83;7.80;;;;;;;4.61;52.55;98568.44;8384264;28;20522;-67
2023/01/21 17:56:59;;;;;;;8.70;7.63;;;;;;;4.43;53.58;98569.47;8385661;28;20270;-68
2023/01/21 18:01:04;;;;;;;8.93;7.90;;;;;;;4.00;54.77;98563.88;8386399;28;20240;-68
2023/01/21 18:05:08;;;;;;;8.73;7.93;;;;;;;4.24;53.80;98573.91;8385733;28;20463;-68
2023/01/21 18:09:12;;;;;;;9.43;8.33;;;;;;;4.60;52.92;98565.88;8385581;28;20224;-68
2023/01/21 18:13:18;;;;;;;10.17;9.17;;;;;;;4.74;52.57;98571.72;8386286;28;20221;-68
2023/01/21 18:17:22;;;;;;;9.27;7.60;;;;;;;4.15;53.73;98568.00;8385230;28;20454;-67
2023/01/21 18:21:25;;;;;;;8.07;7.27;;;;;;;4.48;53.29;98575.41;8385734;28;20225;-67
2023/01/21 18:25:29;;;;;;;8.90;8.00;;;;;;;4.49;53.64;98571.97;8385139;28;20270;-68
2023/01/21 18:29:33;;;;;;;9.20;7.60;;;;;;;4.47;54.42;98566.03;8383607;28;20228;-67
2023/01/21 18:33:35;;;;;;;9.67;7.87;;;;;;;4.64;53.97;98552.97;8385205;28;20232;-67
2023/01/21 18:37:38;;;;;;;11.07;8.47;;;;;;;4.17;55.33;98525.28;8384444;28;20224;-67
2023/01/21 18:41:41;;;;;;;9.70;8.67;;;;;;;4.14;56.03;98556.09;8384594;28;20509;-68
2023/01/21 18:45:46;;;;;;;10.40;8.63;;;;;;;4.52;54.95;98552.28;8382857;28;20558;-67
2023/01/21 18:49:50;;;;;;;9.43;8.43;;;;;;;4.32;55.65;98553.31;8384899;28;20233;-68
2023/01/21 18:53:53;;;;;;;10.73;9.13;;;;;;;4.34;55.55;98558.44;8384274;28;20229;-67
2023/01/21 18:57:56;;;;;;;11.17;9.30;;;;;;;4.40;55.04;98551.56;8384430;28;20290;-68
2023/01/21 19:02:01;;;;;;;11.63;9.57;;;;;;;4.43;55.54;98548.09;8384070;28;20244;-67
2023/01/21 19:06:09;;;;;;;11.03;9.23;;;;;;;4.34;55.59;98548.19;8383431;28;20288;-67
2023/01/21 19:10:15;;;;;;;10.57;9.03;;;;;;;3.60;57.38;98525.75;8381833;28;20337;-67
2023/01/21 19:14:19;;;;;;;10.43;8.67;;;;;;;4.26;56.19;98540.56;8383460;28;20225;-68
2023/01/21 19:18:25;;;;;;;11.13;9.43;;;;;;;4.09;56.38;98536.47;8383462;28;20224;-68
2023/01/21 19:22:29;;;;;;;11.47;9.93;;;;;;;3.85;57.41;98522.16;8382698;28;20225;-67
2023/01/21 19:26:33;;;;;;;13.73;10.70;;;;;;;4.09;57.04;98527.91;8383162;28;20247;-67